Time;durP1;ratioP1;P1;durP2;ratioP2;P2;SDS_P1;SDS_P2;PMS_P1;PMS_P2;Temp;Humidity;BMP_temperature;BMP_pressure;BME280_temperature;BME280_humidity;BME280_pressure;Samples;Min_cycle;Max_cycle;Signal;HPM_P1;HPM_P2
2021/01/03 00:02:07;;;;;;;48.20;18.97;;;;;;;1.32;100.00;95416.91;4998770;28;20202;-73
2021/01/03 00:04:34;;;;;;;54.33;19.10;;;;;;;1.41;100.00;95413.47;4998605;28;20230;-73
2021/01/03 00:07:00;;;;;;;49.70;18.50;;;;;;;1.21;100.00;95411.06;4997985;28;20206;-73
2021/01/03 00:09:26;;;;;;;49.80;17.93;;;;;;;1.11;100.00;95412.03;4999131;28;20706;-73
2021/01/03 00:11:53;;;;;;;50.67;18.40;;;;;;;0.76;100.00;95411.81;4998611;28;20206;-73
2021/01/03 00:14:20;;;;;;;47.40;17.77;;;;;;;0.99;100.00;95413.16;4998067;28;20227;-73
2021/01/03 00:16:47;;;;;;;46.43;17.77;;;;;;;0.96;100.00;95421.22;4997801;28;20253;-73
2021/01/03 00:19:13;;;;;;;52.90;18.27;;;;;;;1.10;100.00;95413.00;5000969;28;20207;-73
2021/01/03 00:21:39;;;;;;;48.47;18.10;;;;;;;1.12;100.00;95413.66;4999218;28;20624;-74
2021/01/03 00:24:06;;;;;;;49.53;17.20;;;;;;;1.15;100.00;95416.00;4999109;28;20709;-74
2021/01/03 00:26:32;;;;;;;50.73;17.67;;;;;;;1.13;100.00;95412.72;4997863;28;20262;-74
2021/01/03 00:28:58;;;;;;;53.57;18.53;;;;;;;1.18;100.00;95413.13;4997734;28;20337;-74
2021/01/03 00:31:25;;;;;;;52.20;18.13;;;;;;;1.25;100.00;95418.41;4998212;28;20752;-74
2021/01/03 00:33:51;;;;;;;54.13;18.87;;;;;;;1.11;100.00;95410.28;4996640;28;20300;-74
2021/01/03 00:36:18;;;;;;;45.83;18.43;;;;;;;0.94;100.00;95404.97;4996366;28;20230;-73
2021/01/03 00:38:44;;;;;;;54.20;18.33;;;;;;;1.08;100.00;95407.13;4996442;28;20205;-74
2021/01/03 00:41:10;;;;;;;48.77;18.10;;;;;;;1.07;100.00;95400.31;4997421;28;20287;-74
2021/01/03 00:43:36;;;;;;;45.30;17.57;;;;;;;1.05;100.00;95402.22;4997434;28;20229;-74
2021/01/03 00:46:02;;;;;;;46.17;17.23;;;;;;;1.04;100.00;95400.59;4997086;28;20203;-74
2021/01/03 00:48:29;;;;;;;48.33;17.67;;;;;;;1.06;100.00;95403.84;4997258;28;20264;-73
2021/01/03 00:50:55;;;;;;;51.60;18.50;;;;;;;1.10;100.00;95405.22;4997348;28;20273;-73
2021/01/03 00:53:21;;;;;;;54.03;18.63;;;;;;;1.15;100.00;95400.44;4996943;28;20317;-74
2021/01/03 00:55:47;;;;;;;51.37;18.43;;;;;;;1.00;100.00;95399.25;4996820;28;20232;-74
2021/01/03 00:58:13;;;;;;;44.97;17.47;;;;;;;0.97;100.00;95399.50;4996929;28;20595;-74
2021/01/03 01:00:39;;;;;;;51.73;18.23;;;;;;;1.06;100.00;95403.84;4997461;28;20997;-74
2021/01/03 01:03:05;;;;;;;52.97;18.27;;;;;;;1.04;100.00;95403.19;4998139;28;20225;-73
2021/01/03 01:05:32;;;;;;;53.87;18.27;;;;;;;1.00;100.00;95394.84;4997261;28;20207;-74
2021/01/03 01:07:58;;;;;;;50.70;18.53;;;;;;;0.74;100.00;95386.03;4997023;28;20783;-74
2021/01/03 01:10:27;;;;;;;49.00;17.73;;;;;;;0.88;100.00;95402.94;4997798;28;20327;-74
2021/01/03 01:12:54;;;;;;;50.93;17.90;;;;;;;0.88;100.00;95395.97;4997789;28;20226;-74
2021/01/03 01:15:22;;;;;;;47.80;17.60;;;;;;;0.86;100.00;95403.06;4996489;28;20206;-74
2021/01/03 01:17:49;;;;;;;49.53;18.23;;;;;;;0.83;100.00;95400.78;4997079;28;20349;-74
2021/01/03 01:20:17;;;;;;;49.60;18.33;;;;;;;0.70;100.00;95397.66;4997472;28;20198;-73
2021/01/03 01:22:44;;;;;;;52.37;18.30;;;;;;;0.56;100.00;95399.03;4996980;28;21077;-75
2021/01/03 01:25:13;;;;;;;48.57;17.67;;;;;;;0.57;100.00;95404.06;4996837;28;20209;-74
2021/01/03 01:27:39;;;;;;;47.47;18.40;;;;;;;0.48;100.00;95414.44;4997619;28;20207;-74
2021/01/03 01:30:08;;;;;;;48.80;18.20;;;;;;;0.49;100.00;95408.31;4996784;28;20277;-74
2021/01/03 01:32:35;;;;;;;45.73;17.07;;;;;;;0.44;100.00;95406.13;4997379;28;20695;-74
2021/01/03 01:35:01;;;;;;;51.53;17.13;;;;;;;0.39;100.00;95408.28;4996847;28;20209;-74
2021/01/03 01:37:27;;;;;;;40.90;15.93;;;;;;;0.39;100.00;95408.28;4998024;28;20213;-74
2021/01/03 01:39:54;;;;;;;42.77;14.83;;;;;;;0.03;100.00;95408.94;4996618;28;21052;-74
2021/01/03 01:42:20;;;;;;;38.63;13.73;;;;;;;0.06;100.00;95408.69;4997427;28;20256;-74
2021/01/03 01:44:46;;;;;;;41.03;15.40;;;;;;;0.01;100.00;95407.44;4996877;28;20226;-74
2021/01/03 01:47:19;;;;;;;41.43;15.00;;;;;;;0.22;100.00;95415.94;4997561;28;20213;-75
2021/01/03 01:49:46;;;;;;;39.77;15.17;;;;;;;0.37;100.00;95409.38;4996198;28;20305;-75
2021/01/03 01:52:14;;;;;;;39.90;15.00;;;;;;;0.36;100.00;95416.34;4997026;28;21414;-74
2021/01/03 01:54:45;;;;;;;44.17;15.63;;;;;;;0.28;100.00;95416.22;4997024;28;20299;-74
2021/01/03 01:57:19;;;;;;;44.63;16.07;;;;;;;0.30;100.00;95416.88;4996583;28;20249;-75
2021/01/03 01:59:52;;;;;;;40.90;15.33;;;;;;;0.19;100.00;95419.63;4997134;28;20206;-74
2021/01/03 02:02:24;;;;;;;39.20;15.27;;;;;;;0.45;100.00;95412.94;4997508;28;20226;-75
2021/01/03 02:04:56;;;;;;;42.57;14.57;;;;;;;0.33;100.00;95414.03;4996384;28;20207;-75
2021/01/03 02:07:27;;;;;;;44.50;15.50;;;;;;;0.28;100.00;95415.38;4996256;28;20206;-74
2021/01/03 02:10:05;;;;;;;42.57;15.53;;;;;;;0.43;100.00;95409.66;4997128;28;20229;-75
2021/01/03 02:12:36;;;;;;;41.73;15.47;;;;;;;0.46;100.00;95409.41;4996547;28;20209;-75
2021/01/03 02:15:03;;;;;;;44.90;16.23;;;;;;;0.69;100.00;95408.16;4995869;28;20655;-74
2021/01/03 02:17:29;;;;;;;39.90;15.10;;;;;;;0.80;100.00;95414.03;4997133;28;20214;-74
2021/01/03 02:19:59;;;;;;;43.40;16.40;;;;;;;0.90;100.00;95416.59;4996625;28;20620;-75
2021/01/03 02:22:30;;;;;;;41.97;15.30;;;;;;;0.55;100.00;95416.34;4996711;28;20206;-74
2021/01/03 02:25:00;;;;;;;42.83;15.73;;;;;;;0.64;100.00;95421.53;4996307;28;20716;-74
2021/01/03 02:27:34;;;;;;;37.33;15.37;;;;;;;0.76;100.00;95422.19;4997048;28;20203;-75
2021/01/03 02:30:01;;;;;;;37.93;15.40;;;;;;;0.77;100.00;95419.47;4997909;28;20229;-75
2021/01/03 02:32:30;;;;;;;41.73;15.97;;;;;;;0.89;100.00;95425.31;5000386;28;20214;-74
2021/01/03 02:34:56;;;;;;;39.13;15.30;;;;;;;0.76;100.00;95429.97;5000079;28;20203;-74
2021/01/03 02:37:25;;;;;;;37.87;15.13;;;;;;;0.54;100.00;95426.88;4999429;28;20241;-74
2021/01/03 02:39:58;;;;;;;40.57;15.30;;;;;;;0.56;100.00;95430.97;5000680;28;20199;-74
2021/01/03 02:42:29;;;;;;;42.83;15.70;;;;;;;0.57;100.00;95427.38;5000058;28;20431;-75
2021/01/03 02:44:55;;;;;;;39.30;14.93;;;;;;;0.27;100.00;95424.94;5000038;28;20915;-75
2021/01/03 02:47:25;;;;;;;43.73;16.43;;;;;;;0.27;100.00;95427.53;4999291;28;20209;-74
2021/01/03 02:49:51;;;;;;;40.20;15.50;;;;;;;0.43;100.00;95414.84;5000630;28;21144;-75
2021/01/03 02:52:28;;;;;;;39.00;15.57;;;;;;;0.36;100.00;95426.72;5000139;28;20304;-74
2021/01/03 02:54:54;;;;;;;40.90;15.33;;;;;;;0.41;100.00;95418.53;4999660;28;20583;-73
2021/01/03 02:57:19;;;;;;;41.03;15.00;;;;;;;0.49;100.00;95409.13;4999790;28;20207;-75
2021/01/03 02:59:46;;;;;;;41.67;16.10;;;;;;;0.57;100.00;95416.22;5000209;28;20672;-74
2021/01/03 03:02:12;;;;;;;43.97;17.00;;;;;;;0.62;100.00;95417.44;4999158;28;20574;-75
2021/01/03 03:04:38;;;;;;;44.27;15.83;;;;;;;0.69;100.00;95408.97;4999552;28;20244;-75
2021/01/03 03:07:04;;;;;;;39.47;15.40;;;;;;;0.53;100.00;95410.47;4999278;28;20215;-74
2021/01/03 03:09:30;;;;;;;44.57;16.37;;;;;;;0.40;100.00;95403.94;4999541;28;20284;-74
2021/01/03 03:11:56;;;;;;;43.20;16.07;;;;;;;0.41;100.00;95396.03;5000047;28;20209;-74
2021/01/03 03:14:22;;;;;;;40.40;15.97;;;;;;;0.51;100.00;95391.69;4999672;28;20261;-74
2021/01/03 03:16:55;;;;;;;45.80;16.80;;;;;;;0.46;100.00;95398.19;4998416;28;20258;-75
2021/01/03 03:19:20;;;;;;;42.03;15.77;;;;;;;0.50;100.00;95382.25;4998565;28;20201;-75
2021/01/03 03:21:47;;;;;;;45.53;16.33;;;;;;;0.62;100.00;95383.72;4999613;28;20237;-74
2021/01/03 03:24:13;;;;;;;42.93;16.60;;;;;;;0.61;100.00;95375.16;4999391;28;20229;-74
2021/01/03 03:26:38;;;;;;;43.90;16.60;;;;;;;0.69;100.00;95380.47;4999024;28;20263;-74
2021/01/03 03:29:04;;;;;;;47.30;17.20;;;;;;;0.63;100.00;95372.41;4999594;28;20226;-74
2021/01/03 03:31:31;;;;;;;43.73;16.53;;;;;;;0.59;100.00;95379.66;4999839;28;21145;-75
2021/01/03 03:33:57;;;;;;;43.07;16.57;;;;;;;0.62;100.00;95374.22;4999112;28;21013;-74
2021/01/03 03:36:23;;;;;;;44.20;16.40;;;;;;;0.74;100.00;95372.28;4998526;28;20216;-74
2021/01/03 03:38:50;;;;;;;48.60;16.33;;;;;;;0.69;100.00;95364.91;4999359;28;20202;-75
2021/01/03 03:41:20;;;;;;;47.57;17.77;;;;;;;0.63;100.00;95369.81;4998237;28;20198;-74
2021/01/03 03:43:46;;;;;;;49.17;17.10;;;;;;;0.49;100.00;95361.66;4998581;28;20729;-75
2021/01/03 03:46:12;;;;;;;46.00;16.97;;;;;;;0.50;100.00;95361.53;4998875;28;20211;-74
2021/01/03 03:48:38;;;;;;;46.03;16.73;;;;;;;0.43;100.00;95357.84;4998891;28;20210;-74
2021/01/03 03:51:05;;;;;;;40.27;16.57;;;;;;;0.53;100.00;95361.25;4999148;28;20831;-73
2021/01/03 03:53:31;;;;;;;43.53;16.40;;;;;;;0.76;100.00;95365.16;4998820;28;20229;-74
2021/01/03 03:55:57;;;;;;;44.30;16.57;;;;;;;0.74;100.00;95364.50;4998927;28;20253;-74
2021/01/03 03:58:23;;;;;;;46.37;16.80;;;;;;;0.81;100.00;95358.59;4998671;28;20212;-74
2021/01/03 04:00:49;;;;;;;39.70;16.13;;;;;;;0.66;100.00;95370.38;4999436;28;20248;-74
2021/01/03 04:03:18;;;;;;;45.23;17.13;;;;;;;0.84;100.00;95368.69;4998603;28;20222;-74
2021/01/03 04:05:45;;;;;;;49.63;17.90;;;;;;;0.81;100.00;95371.56;4998277;28;20764;-74
2021/01/03 04:08:13;;;;;;;43.60;15.83;;;;;;;0.75;100.00;95374.72;4998034;28;21256;-75
2021/01/03 04:10:40;;;;;;;42.90;16.63;;;;;;;0.90;100.00;95372.50;4998604;28;20237;-75
2021/01/03 04:13:06;;;;;;;46.30;18.10;;;;;;;0.90;100.00;95373.31;4997815;28;21073;-74
2021/01/03 04:15:32;;;;;;;49.73;18.50;;;;;;;0.86;100.00;95376.34;4997906;28;20217;-74
2021/01/03 04:17:58;;;;;;;45.33;17.03;;;;;;;0.83;100.00;95367.06;4998480;28;20297;-74
2021/01/03 04:20:24;;;;;;;43.27;17.00;;;;;;;0.87;100.00;95372.78;4999018;28;21187;-74
2021/01/03 04:22:50;;;;;;;47.00;16.93;;;;;;;0.87;100.00;95372.78;4998231;28;20232;-74
2021/01/03 04:25:17;;;;;;;44.60;16.10;;;;;;;0.63;100.00;95365.44;4997453;28;20939;-74
2021/01/03 04:27:44;;;;;;;42.67;16.33;;;;;;;0.65;100.00;95373.13;4998723;28;20206;-74
2021/01/03 04:30:12;;;;;;;48.83;17.10;;;;;;;0.59;100.00;95376.25;4998110;28;20685;-73
2021/01/03 04:32:38;;;;;;;47.10;16.97;;;;;;;0.66;100.00;95374.72;4997813;28;20269;-75
2021/01/03 04:35:05;;;;;;;37.80;15.80;;;;;;;0.70;100.00;95376.06;4997808;28;20221;-74
2021/01/03 04:37:31;;;;;;;43.57;15.47;;;;;;;0.78;100.00;95378.81;4997547;28;20273;-74
2021/01/03 04:39:57;;;;;;;43.27;16.47;;;;;;;0.86;100.00;95391.91;4997928;28;20202;-74
2021/01/03 04:42:30;;;;;;;41.10;16.37;;;;;;;0.90;100.00;95382.88;4998546;28;20204;-75
2021/01/03 04:45:00;;;;;;;39.37;16.57;;;;;;;0.98;100.00;95390.78;4997589;28;20205;-75
2021/01/03 04:47:31;;;;;;;39.83;15.33;;;;;;;0.83;100.00;95385.22;4998035;28;20299;-74
2021/01/03 04:50:07;;;;;;;36.03;14.70;;;;;;;0.79;100.00;95378.66;4998275;28;20259;-74
2021/01/03 04:53:04;;;;;;;39.23;15.90;;;;;;;1.00;100.00;95384.47;4998015;28;20210;-74
2021/01/03 04:55:32;;;;;;;42.83;16.43;;;;;;;1.00;100.00;95384.47;4997150;28;20206;-76
2021/01/03 04:58:20;;;;;;;42.70;16.30;;;;;;;0.89;100.00;95381.22;4997685;28;20202;-74
2021/01/03 05:00:50;;;;;;;46.60;16.07;;;;;;;1.07;100.00;95380.38;4997659;28;20207;-74
2021/01/03 05:03:44;;;;;;;43.23;14.73;;;;;;;0.89;100.00;95383.81;4997251;28;20698;-75
2021/01/03 05:06:15;;;;;;;41.93;15.83;;;;;;;0.94;100.00;95386.81;4996170;28;20210;-75
2021/01/03 05:08:44;;;;;;;39.40;14.93;;;;;;;1.01;100.00;95380.13;4997055;28;20224;-74
2021/01/03 05:11:14;;;;;;;36.90;14.17;;;;;;;0.89;100.00;95382.06;4997769;28;20201;-74
2021/01/03 05:13:59;;;;;;;33.63;14.00;;;;;;;1.01;100.00;95372.34;4997328;28;20868;-74
2021/01/03 05:16:25;;;;;;;38.27;13.87;;;;;;;0.95;100.00;95385.88;4996704;28;20573;-74
2021/01/03 05:18:51;;;;;;;36.30;14.40;;;;;;;0.99;100.00;95382.03;4997741;28;21110;-74
2021/01/03 05:21:17;;;;;;;36.57;14.27;;;;;;;1.01;100.00;95380.94;4997288;28;20194;-74
2021/01/03 05:23:59;;;;;;;39.60;14.30;;;;;;;1.10;100.00;95387.06;4997620;28;20639;-73
2021/01/03 05:26:28;;;;;;;40.67;15.07;;;;;;;1.00;100.00;95378.50;4997048;28;20214;-73
2021/01/03 05:28:56;;;;;;;37.50;14.73;;;;;;;0.98;100.00;95381.22;4996799;28;20230;-73
2021/01/03 05:31:23;;;;;;;36.47;15.00;;;;;;;0.93;100.00;95382.59;4996909;28;20207;-74
2021/01/03 05:33:53;;;;;;;37.03;14.60;;;;;;;1.00;100.00;95388.88;4998123;28;20233;-75
2021/01/03 05:36:29;;;;;;;33.17;13.53;;;;;;;0.92;100.00;95389.56;4995756;28;20209;-75
2021/01/03 05:38:56;;;;;;;40.77;16.10;;;;;;;0.84;100.00;95391.19;4997145;28;20201;-75
2021/01/03 05:41:38;;;;;;;33.23;13.03;;;;;;;0.80;100.00;95390.69;4997094;28;20210;-74
2021/01/03 05:44:11;;;;;;;36.70;13.43;;;;;;;0.69;100.00;95395.19;4997113;28;20264;-74
2021/01/03 05:46:42;;;;;;;34.97;13.23;;;;;;;0.91;100.00;95400.06;4996291;28;20221;-74
2021/01/03 05:49:13;;;;;;;33.00;14.10;;;;;;;0.81;100.00;95400.06;4996752;28;20226;-75
2021/01/03 05:51:43;;;;;;;34.67;14.60;;;;;;;0.77;100.00;95403.91;4996465;28;20242;-74
2021/01/03 05:54:13;;;;;;;36.30;14.50;;;;;;;0.82;100.00;95406.09;4997046;28;20226;-74
2021/01/03 05:56:40;;;;;;;34.57;13.87;;;;;;;0.74;100.00;95403.38;4996490;28;20215;-73
2021/01/03 05:59:06;;;;;;;35.67;13.90;;;;;;;0.76;100.00;95406.63;4997341;28;20206;-74
2021/01/03 06:01:36;;;;;;;37.23;13.87;;;;;;;0.66;100.00;95405.81;4996680;28;20213;-75
2021/01/03 06:04:05;;;;;;;39.63;13.60;;;;;;;0.73;100.00;95407.72;4996681;28;20280;-73
2021/01/03 06:06:46;;;;;;;43.00;15.03;;;;;;;0.80;100.00;95408.84;5000062;28;20217;-75
2021/01/03 06:09:13;;;;;;;36.40;14.70;;;;;;;0.81;100.00;95413.03;5000656;28;20640;-74
2021/01/03 06:11:39;;;;;;;38.00;14.77;;;;;;;0.82;100.00;95416.47;5000713;28;20256;-75
2021/01/03 06:14:08;;;;;;;33.53;13.13;;;;;;;0.75;100.00;95408.44;5000954;28;20229;-75
2021/01/03 06:16:46;;;;;;;35.90;15.30;;;;;;;0.81;100.00;95414.81;4999720;28;20636;-74
2021/01/03 06:19:33;;;;;;;35.53;14.90;;;;;;;0.84;100.00;95412.78;5001072;28;20205;-74
2021/01/03 06:21:59;;;;;;;35.63;14.57;;;;;;;0.75;100.00;95399.81;5000071;28;20256;-74
2021/01/03 06:24:26;;;;;;;36.10;14.00;;;;;;;0.66;100.00;95405.81;5000717;28;20320;-75
2021/01/03 06:26:55;;;;;;;30.93;13.17;;;;;;;0.79;100.00;95408.94;4999898;28;20200;-74
2021/01/03 06:29:31;;;;;;;35.47;13.70;;;;;;;0.77;100.00;95406.50;5000739;28;20245;-74
2021/01/03 06:32:24;;;;;;;30.87;12.70;;;;;;;0.77;100.00;95409.09;5000185;28;20209;-75
2021/01/03 06:34:52;;;;;;;33.77;13.83;;;;;;;0.67;100.00;95407.47;5000754;28;20264;-74
2021/01/03 06:37:27;;;;;;;34.63;13.63;;;;;;;0.81;100.00;95410.44;4999490;28;20212;-76
2021/01/03 06:40:00;;;;;;;36.97;14.63;;;;;;;0.58;100.00;95414.28;4999837;28;20198;-74
2021/01/03 06:43:24;;;;;;;38.83;14.57;;;;;;;0.55;100.00;95413.75;4999715;28;20248;-75
2021/01/03 06:46:31;;;;;;;47.67;17.57;;;;;;;0.43;100.00;95420.03;5000471;28;21142;-75
2021/01/03 06:49:26;;;;;;;44.23;17.73;;;;;;;0.29;100.00;95423.00;4999789;28;20448;-75
2021/01/03 06:52:16;;;;;;;42.30;16.77;;;;;;;0.34;100.00;95420.03;5000199;28;20214;-74
2021/01/03 06:55:17;;;;;;;38.87;15.63;;;;;;;0.50;100.00;95422.88;5001093;28;20228;-74
2021/01/03 06:58:23;;;;;;;35.63;14.63;;;;;;;0.49;100.00;95422.06;4999632;28;20711;-75
2021/01/03 07:00:50;;;;;;;37.77;15.07;;;;;;;0.47;100.00;95429.19;5000439;28;20202;-74
2021/01/03 07:03:20;;;;;;;42.23;15.23;;;;;;;0.46;100.00;95419.78;4999609;28;20215;-74
2021/01/03 07:05:53;;;;;;;43.00;15.37;;;;;;;0.52;100.00;95421.78;4998242;28;21106;-76
2021/01/03 07:08:21;;;;;;;40.53;15.33;;;;;;;0.52;100.00;95429.56;4999264;28;20680;-74
2021/01/03 07:10:47;;;;;;;44.37;15.33;;;;;;;0.50;100.00;95421.13;4999992;28;20229;-74
2021/01/03 07:13:38;;;;;;;39.60;14.60;;;;;;;0.53;100.00;95425.22;4999185;28;20754;-74
2021/01/03 07:16:08;;;;;;;45.83;15.63;;;;;;;0.60;100.00;95427.13;4999457;28;20231;-76
2021/01/03 07:18:49;;;;;;;37.83;15.30;;;;;;;0.63;100.00;95426.84;4999479;28;20209;-74
2021/01/03 07:21:36;;;;;;;45.40;16.20;;;;;;;0.66;100.00;95432.59;4999547;28;20241;-73
2021/01/03 07:24:31;;;;;;;39.43;15.47;;;;;;;0.64;100.00;95431.09;4999152;28;20764;-76
2021/01/03 07:27:33;;;;;;;35.97;14.57;;;;;;;0.57;100.00;95427.38;4998644;28;20203;-74
2021/01/03 07:30:37;;;;;;;37.93;14.53;;;;;;;0.57;100.00;95427.38;4999263;28;20220;-73
2021/01/03 07:33:19;;;;;;;41.83;15.40;;;;;;;0.63;100.00;95434.63;4999002;28;20218;-73
2021/01/03 07:35:45;;;;;;;42.23;15.53;;;;;;;0.68;100.00;95437.63;4998861;28;20206;-73
2021/01/03 07:38:30;;;;;;;39.93;15.87;;;;;;;0.65;100.00;95440.50;4999704;28;20209;-72
2021/01/03 07:41:06;;;;;;;40.60;14.20;;;;;;;0.61;100.00;95439.94;4999095;28;20209;-74
2021/01/03 07:43:56;;;;;;;38.40;14.33;;;;;;;0.70;100.00;95448.66;4999555;28;20236;-75
2021/01/03 07:46:45;;;;;;;40.60;14.80;;;;;;;0.73;100.00;95451.00;4998550;28;20676;-72
2021/01/03 07:49:35;;;;;;;46.20;16.37;;;;;;;0.67;100.00;95449.75;4998766;28;20231;-74
2021/01/03 07:52:11;;;;;;;43.40;16.73;;;;;;;0.74;100.00;95447.47;4998874;28;20615;-74
2021/01/03 07:54:38;;;;;;;45.30;18.30;;;;;;;0.72;100.00;95451.94;4998731;28;20284;-72
2021/01/03 07:57:08;;;;;;;46.63;17.43;;;;;;;0.80;100.00;95450.31;4997565;28;20206;-72
2021/01/03 07:59:35;;;;;;;38.43;15.30;;;;;;;0.78;100.00;95457.41;4999014;28;20230;-73
2021/01/03 08:02:01;;;;;;;43.17;16.50;;;;;;;0.80;100.00;95459.84;4998638;28;20288;-75
2021/01/03 08:04:31;;;;;;;44.37;17.20;;;;;;;0.80;100.00;95454.66;4999097;28;20222;-74
2021/01/03 08:07:05;;;;;;;43.97;15.43;;;;;;;0.89;100.00;95464.22;4997296;28;20241;-73
2021/01/03 08:09:31;;;;;;;37.90;16.13;;;;;;;0.84;100.00;95464.63;4999218;28;20264;-76
2021/01/03 08:12:08;;;;;;;51.83;17.67;;;;;;;0.85;100.00;95461.09;4997959;28;20578;-73
2021/01/03 08:14:38;;;;;;;50.13;17.53;;;;;;;0.84;100.00;95463.81;4998261;28;20221;-75
2021/01/03 08:17:04;;;;;;;39.97;15.37;;;;;;;0.80;100.00;95465.03;4998114;28;20440;-75
2021/01/03 08:19:30;;;;;;;37.37;15.13;;;;;;;0.79;100.00;95463.41;4998813;28;20666;-74
2021/01/03 08:21:58;;;;;;;45.87;16.70;;;;;;;0.71;100.00;95464.09;4997615;28;20196;-72
2021/01/03 08:24:27;;;;;;;42.83;16.27;;;;;;;0.82;100.00;95469.13;4999159;28;20232;-74
2021/01/03 08:26:57;;;;;;;36.60;15.90;;;;;;;0.94;100.00;95469.81;4996811;28;20209;-74
2021/01/03 08:29:36;;;;;;;41.10;15.40;;;;;;;0.83;100.00;95467.38;4998002;28;20229;-73
2021/01/03 08:32:10;;;;;;;42.97;16.60;;;;;;;0.93;100.00;95476.78;4997793;28;20250;-73
2021/01/03 08:34:39;;;;;;;42.60;16.63;;;;;;;0.88;100.00;95472.94;4998959;28;20233;-74
2021/01/03 08:37:18;;;;;;;45.53;18.07;;;;;;;0.90;100.00;95476.22;4996939;28;20221;-73
2021/01/03 08:39:45;;;;;;;45.13;16.50;;;;;;;0.91;100.00;95477.88;4997212;28;20205;-74
2021/01/03 08:42:15;;;;;;;44.43;18.53;;;;;;;0.72;100.00;95480.47;4997205;28;20557;-73
2021/01/03 08:44:49;;;;;;;43.17;16.93;;;;;;;0.74;100.00;95487.16;4997183;28;20229;-72
2021/01/03 08:47:20;;;;;;;47.17;17.77;;;;;;;0.66;100.00;95479.25;4997455;28;20646;-72
2021/01/03 08:49:47;;;;;;;47.57;17.27;;;;;;;0.73;100.00;95484.69;4998108;28;20229;-72
2021/01/03 08:52:18;;;;;;;44.40;16.57;;;;;;;0.69;100.00;95484.16;4997540;28;20676;-72
2021/01/03 08:54:45;;;;;;;51.17;17.63;;;;;;;0.74;100.00;95494.94;4998161;28;20716;-72
2021/01/03 08:57:12;;;;;;;44.33;18.03;;;;;;;0.73;100.00;95495.06;4997755;28;20201;-73
2021/01/03 08:59:39;;;;;;;46.80;17.80;;;;;;;0.75;100.00;95495.72;4999452;28;20279;-72
2021/01/03 09:02:20;;;;;;;50.27;18.80;;;;;;;0.65;100.00;95502.72;4998446;28;20259;-72
2021/01/03 09:04:47;;;;;;;50.30;18.37;;;;;;;0.64;100.00;95499.28;4998562;28;20226;-72
2021/01/03 09:07:15;;;;;;;48.10;16.83;;;;;;;0.80;100.00;95504.75;4997076;28;20203;-72
2021/01/03 09:09:46;;;;;;;50.73;18.53;;;;;;;0.94;100.00;95503.53;4998543;28;20228;-72
2021/01/03 09:12:12;;;;;;;46.83;17.03;;;;;;;1.02;100.00;95504.47;4998120;28;20226;-72
2021/01/03 09:14:46;;;;;;;57.90;24.30;;;;;;;1.04;100.00;95510.34;4998456;28;20243;-72
2021/01/03 09:17:17;;;;;;;64.03;26.30;;;;;;;1.03;100.00;95510.47;4996328;28;20606;-73
2021/01/03 09:19:51;;;;;;;47.40;20.30;;;;;;;1.06;100.00;95512.78;4997074;28;20202;-72
2021/01/03 09:22:24;;;;;;;42.20;17.90;;;;;;;1.00;100.00;95513.34;4997265;28;20204;-72
2021/01/03 09:24:58;;;;;;;51.03;21.20;;;;;;;1.13;100.00;95512.09;4996550;28;21251;-72
2021/01/03 09:27:27;;;;;;;41.60;17.93;;;;;;;1.07;100.00;95519.63;4997511;28;20209;-72
2021/01/03 09:30:07;;;;;;;42.87;17.53;;;;;;;1.14;100.00;95516.34;4995937;28;20279;-72
2021/01/03 09:32:35;;;;;;;47.57;17.63;;;;;;;1.09;100.00;95522.91;4997065;28;20208;-72
2021/01/03 09:35:10;;;;;;;57.20;20.00;;;;;;;1.08;100.00;95523.84;4997932;28;20206;-71
2021/01/03 09:37:40;;;;;;;63.83;18.67;;;;;;;2.15;100.00;95524.13;4998704;28;20220;-71
2021/01/03 09:40:30;;;;;;;53.73;20.67;;;;;;;2.53;100.00;95522.13;4997140;28;20568;-72
2021/01/03 09:43:14;;;;;;;47.92;21.80;;;;;;;2.30;100.00;95527.88;4991976;28;20535;-72
2021/01/03 09:45:52;;;;;;;47.57;18.67;;;;;;;1.93;100.00;95532.28;4998233;28;20207;-72
2021/01/03 09:48:29;;;;;;;42.63;16.33;;;;;;;1.65;100.00;95533.19;4997453;28;20213;-72
2021/01/03 09:51:07;;;;;;;47.33;17.77;;;;;;;1.50;100.00;95528.56;4997913;28;20225;-72
2021/01/03 09:53:38;;;;;;;42.63;16.43;;;;;;;1.29;100.00;95539.13;4997284;28;20282;-72
2021/01/03 09:56:17;;;;;;;38.93;15.80;;;;;;;1.33;100.00;95537.09;4997234;28;20206;-73
2021/01/03 09:58:51;;;;;;;37.57;14.87;;;;;;;1.27;100.00;95533.28;4996890;28;20221;-72
2021/01/03 10:01:30;;;;;;;40.90;16.37;;;;;;;1.23;100.00;95542.28;4996090;28;20247;-72
2021/01/03 10:04:12;;;;;;;39.17;16.13;;;;;;;1.18;100.00;95535.06;4996087;28;20236;-72
2021/01/03 10:06:39;;;;;;;45.53;15.33;;;;;;;1.10;100.00;95546.09;4996149;28;20216;-73
2021/01/03 10:09:11;;;;;;;36.50;15.70;;;;;;;1.14;100.00;95531.09;4996596;28;20209;-72
2021/01/03 10:11:37;;;;;;;44.03;16.13;;;;;;;1.10;100.00;95530.53;4995769;28;20228;-72
2021/01/03 10:14:06;;;;;;;44.30;16.37;;;;;;;1.05;100.00;95531.91;4995351;28;20639;-72
2021/01/03 10:16:34;;;;;;;43.60;16.23;;;;;;;1.14;100.00;95531.91;4995383;28;20213;-72
2021/01/03 10:19:12;;;;;;;40.10;15.43;;;;;;;1.18;100.00;95530.66;4995812;28;20202;-72
2021/01/03 10:21:41;;;;;;;38.20;15.17;;;;;;;1.37;100.00;95528.88;4995214;28;20206;-73
2021/01/03 10:24:15;;;;;;;38.80;15.90;;;;;;;1.51;100.00;95531.03;4995148;28;20744;-71
2021/01/03 10:26:44;;;;;;;44.67;16.83;;;;;;;1.53;100.00;95529.13;4994891;28;20201;-72
2021/01/03 10:29:11;;;;;;;38.93;16.40;;;;;;;1.52;100.00;95527.47;4995386;28;20218;-73
2021/01/03 10:31:39;;;;;;;40.13;15.67;;;;;;;1.47;100.00;95534.06;4995630;28;20665;-72
2021/01/03 10:34:07;;;;;;;36.37;14.40;;;;;;;1.36;100.00;95535.03;4995526;28;20228;-72
2021/01/03 10:36:33;;;;;;;37.87;14.87;;;;;;;1.37;100.00;95534.06;4994519;28;20202;-73
2021/01/03 10:38:58;;;;;;;40.40;14.60;;;;;;;1.45;100.00;95541.16;4996937;28;20213;-72
2021/01/03 10:41:29;;;;;;;40.93;15.43;;;;;;;1.49;100.00;95538.16;4994628;28;20321;-73
2021/01/03 10:43:55;;;;;;;40.77;14.93;;;;;;;1.51;100.00;95531.03;4995592;28;20256;-72
2021/01/03 10:46:21;;;;;;;39.13;14.67;;;;;;;1.57;100.00;95535.66;4997062;28;20236;-72
2021/01/03 10:48:47;;;;;;;35.67;15.23;;;;;;;1.56;100.00;95534.03;4997484;28;20325;-72
2021/01/03 10:51:14;;;;;;;35.57;15.07;;;;;;;1.66;100.00;95528.84;4997635;28;20265;-72
2021/01/03 10:53:40;;;;;;;38.57;15.67;;;;;;;1.62;100.00;95525.69;4998994;28;20230;-72
2021/01/03 10:56:08;;;;;;;58.93;15.53;;;;;;;1.66;100.00;95534.84;4999107;28;20248;-73
2021/01/03 10:58:34;;;;;;;48.13;14.93;;;;;;;1.69;100.00;95529.34;5000425;28;20213;-72
2021/01/03 11:01:00;;;;;;;36.07;14.97;;;;;;;1.57;100.00;95527.88;4999910;28;20301;-72
2021/01/03 11:03:26;;;;;;;42.63;16.73;;;;;;;1.58;100.00;95526.09;4999976;28;20316;-72
2021/01/03 11:05:52;;;;;;;44.43;16.23;;;;;;;1.62;100.00;95525.69;4999384;28;20217;-72
2021/01/03 11:08:19;;;;;;;40.33;15.30;;;;;;;1.73;100.00;95525.50;4998579;28;20597;-72
2021/01/03 11:10:45;;;;;;;38.97;14.57;;;;;;;1.79;100.00;95519.75;4999532;28;20229;-72
2021/01/03 11:13:11;;;;;;;42.63;15.53;;;;;;;1.87;100.00;95512.06;4998688;28;20264;-71
2021/01/03 11:15:37;;;;;;;38.70;14.90;;;;;;;1.94;100.00;95516.56;4998801;28;20252;-72
2021/01/03 11:18:03;;;;;;;39.90;15.17;;;;;;;2.04;100.00;95509.53;4999572;28;20218;-72
2021/01/03 11:20:29;;;;;;;39.93;15.40;;;;;;;2.16;100.00;95497.19;4999747;28;20568;-72
2021/01/03 11:22:55;;;;;;;39.50;16.07;;;;;;;1.95;100.00;95499.19;4998796;28;20222;-72
2021/01/03 11:25:22;;;;;;;49.20;17.20;;;;;;;2.03;100.00;95507.09;4998747;28;20842;-72
2021/01/03 11:27:48;;;;;;;37.53;15.27;;;;;;;2.03;100.00;95501.91;4998481;28;20206;-72
2021/01/03 11:30:15;;;;;;;51.03;17.93;;;;;;;2.25;100.00;95496.31;4999009;28;20222;-72
2021/01/03 11:32:43;;;;;;;45.23;16.30;;;;;;;2.30;100.00;95494.91;4998103;28;20849;-72
2021/01/03 11:35:10;;;;;;;41.23;15.53;;;;;;;2.37;100.00;95492.53;4998799;28;20202;-73